Time;durP1;ratioP1;P1;durP2;ratioP2;P2;SDS_P1;SDS_P2;PMS_P1;PMS_P2;Temp;Humidity;BMP_temperature;BMP_pressure;BME280_temperature;BME280_humidity;BME280_pressure;Samples;Min_cycle;Max_cycle;Signal;HPM_P1;HPM_P2
2022/02/24 00:14:00;;;;;;;1.83;1.13;;;;;;;;;;5366846;22;20060;-43
2022/02/24 00:16:26;;;;;;;2.55;1.25;;;;;;;;;;5109048;28;20035;-42
2022/02/24 00:18:52;;;;;;;2.65;1.67;;;;;;;;;;5108875;28;20020;-45
2022/02/24 00:21:18;;;;;;;1.52;1.05;;;;;;;;;;5108081;28;20024;-44
2022/02/24 00:23:44;;;;;;;3.40;1.48;;;;;;;;;;5106165;28;20382;-42
2022/02/24 00:26:11;;;;;;;1.88;1.20;;;;;;;;;;5108253;28;20030;-45
2022/02/24 00:28:37;;;;;;;2.58;1.27;;;;;;;;;;5107642;28;20377;-43
2022/02/24 00:31:03;;;;;;;2.25;1.42;;;;;;;;;;5108576;28;20020;-45
2022/02/24 00:33:29;;;;;;;2.53;1.15;;;;;;;;;;5108376;28;20024;-43
2022/02/24 00:35:55;;;;;;;1.95;1.05;;;;;;;;;;5107615;28;20105;-43
2022/02/24 00:38:21;;;;;;;1.98;1.10;;;;;;;;;;5108471;28;20137;-43
2022/02/24 00:40:47;;;;;;;1.95;1.05;;;;;;;;;;5107956;28;20098;-43
2022/02/24 00:43:13;;;;;;;2.55;1.48;;;;;;;;;;5105447;28;20023;-44
2022/02/24 00:45:39;;;;;;;2.28;1.33;;;;;;;;;;5103109;28;20031;-43
2022/02/24 00:48:07;;;;;;;2.42;1.20;;;;;;;;;;5099323;28;20381;-43
2022/02/24 00:50:33;;;;;;;2.60;1.38;;;;;;;;;;5074346;28;20025;-49
2022/02/24 00:52:59;;;;;;;1.63;1.13;;;;;;;;;;5074503;28;20029;-43
2022/02/24 00:55:26;;;;;;;3.67;1.48;;;;;;;;;;5088119;28;20021;-43
2022/02/24 00:57:52;;;;;;;1.58;0.88;;;;;;;;;;5093613;28;20579;-43
2022/02/24 01:00:18;;;;;;;1.63;1.20;;;;;;;;;;5094569;28;20027;-43
2022/02/24 01:02:44;;;;;;;2.10;1.35;;;;;;;;;;5093826;28;20020;-43
2022/02/24 01:05:11;;;;;;;1.67;1.17;;;;;;;;;;5079825;28;20029;-47
2022/02/24 01:07:37;;;;;;;1.67;1.10;;;;;;;;;;5073642;28;20029;-43
2022/02/24 01:10:03;;;;;;;1.60;1.20;;;;;;;;;;5074201;28;20090;-45
2022/02/24 01:12:30;;;;;;;1.83;1.20;;;;;;;;;;5079374;28;20028;-44
2022/02/24 01:14:56;;;;;;;2.10;0.88;;;;;;;;;;5081934;28;20057;-46
2022/02/24 01:17:22;;;;;;;2.33;1.38;;;;;;;;;;5088764;28;20116;-43
2022/02/24 01:19:48;;;;;;;2.00;1.35;;;;;;;;;;5093400;28;20021;-45
2022/02/24 01:22:16;;;;;;;2.78;1.55;;;;;;;;;;5094219;28;20020;-44
2022/02/24 01:24:42;;;;;;;2.28;1.40;;;;;;;;;;5081121;28;20028;-43
2022/02/24 01:27:08;;;;;;;2.22;1.25;;;;;;;;;;5085748;28;20028;-44
2022/02/24 01:29:34;;;;;;;1.60;0.98;;;;;;;;;;5093669;28;20129;-48
2022/02/24 01:32:01;;;;;;;1.45;1.35;;;;;;;;;;5093773;28;20024;-43
2022/02/24 01:34:27;;;;;;;1.13;0.68;;;;;;;;;;5093290;28;20500;-43
2022/02/24 01:36:54;;;;;;;1.73;0.90;;;;;;;;;;5085754;28;20055;-43
2022/02/24 01:39:20;;;;;;;3.40;1.85;;;;;;;;;;5073635;28;20433;-44
2022/02/24 01:41:48;;;;;;;1.13;0.88;;;;;;;;;;5078702;28;20052;-44
2022/02/24 01:44:15;;;;;;;2.05;1.20;;;;;;;;;;5093777;28;20036;-43
2022/02/24 01:46:42;;;;;;;1.10;0.80;;;;;;;;;;5087504;28;20024;-43
2022/02/24 01:49:09;;;;;;;1.58;1.02;;;;;;;;;;5073251;28;20575;-43
2022/02/24 01:51:36;;;;;;;2.97;1.38;;;;;;;;;;5073016;28;20028;-47
2022/02/24 01:54:02;;;;;;;1.90;1.40;;;;;;;;;;5073456;28;20024;-42
2022/02/24 01:56:28;;;;;;;2.97;1.70;;;;;;;;;;5076093;28;20123;-43
2022/02/24 01:58:54;;;;;;;2.15;1.20;;;;;;;;;;5092545;28;20189;-42
2022/02/24 02:01:21;;;;;;;2.45;1.20;;;;;;;;;;5084743;28;20420;-43
2022/02/24 02:03:49;;;;;;;2.28;1.50;;;;;;;;;;5072483;28;20028;-42
2022/02/24 02:06:15;;;;;;;1.92;1.13;;;;;;;;;;5073595;28;20095;-43
2022/02/24 02:08:41;;;;;;;1.40;0.98;;;;;;;;;;5092290;28;20031;-43
2022/02/24 02:11:07;;;;;;;2.17;1.20;;;;;;;;;;5092478;28;20028;-43
2022/02/24 02:13:34;;;;;;;3.42;1.35;;;;;;;;;;5091575;28;20062;-46
2022/02/24 02:16:00;;;;;;;2.42;1.33;;;;;;;;;;5092437;28;20039;-43
2022/02/24 02:18:26;;;;;;;1.88;1.38;;;;;;;;;;5073763;28;20086;-43
2022/02/24 02:20:52;;;;;;;1.27;1.00;;;;;;;;;;5071654;28;20032;-43
2022/02/24 02:23:18;;;;;;;2.97;1.60;;;;;;;;;;5072802;28;20024;-42
2022/02/24 02:25:44;;;;;;;1.67;1.08;;;;;;;;;;5074207;28;20033;-43
2022/02/24 02:28:14;;;;;;;2.80;1.40;;;;;;;;;;5092358;28;20024;-42
2022/02/24 02:30:40;;;;;;;1.65;1.23;;;;;;;;;;5091507;28;20023;-43
2022/02/24 02:33:06;;;;;;;2.50;1.23;;;;;;;;;;5093051;28;20073;-43
2022/02/24 02:35:32;;;;;;;2.03;1.10;;;;;;;;;;5092893;28;20107;-43
2022/02/24 02:37:58;;;;;;;2.15;1.38;;;;;;;;;;5072555;28;20528;-43
2022/02/24 02:40:25;;;;;;;1.98;1.30;;;;;;;;;;5072563;28;20031;-43
2022/02/24 02:42:51;;;;;;;2.05;1.25;;;;;;;;;;5071445;28;20035;-44
2022/02/24 02:45:17;;;;;;;1.92;1.00;;;;;;;;;;5091848;28;20028;-43
2022/02/24 02:47:44;;;;;;;1.98;0.98;;;;;;;;;;5091953;28;20059;-45
2022/02/24 02:50:10;;;;;;;1.65;1.02;;;;;;;;;;5089163;28;20133;-43
2022/02/24 02:52:36;;;;;;;2.67;1.27;;;;;;;;;;5053985;28;20082;-45
2022/02/24 02:55:04;;;;;;;2.25;1.15;;;;;;;;;;5072189;28;20439;-45
2022/02/24 02:57:30;;;;;;;2.05;1.45;;;;;;;;;;5090321;28;20488;-46
2022/02/24 02:59:56;;;;;;;2.70;1.50;;;;;;;;;;5091745;28;20034;-44
2022/02/24 03:02:22;;;;;;;2.17;1.38;;;;;;;;;;5092452;28;20020;-43
2022/02/24 03:04:52;;;;;;;3.03;1.20;;;;;;;;;;5091688;28;20027;-43
2022/02/24 03:07:18;;;;;;;2.42;1.10;;;;;;;;;;5074964;28;20112;-43
2022/02/24 03:09:45;;;;;;;3.50;1.40;;;;;;;;;;5071345;28;20033;-42
2022/02/24 03:12:11;;;;;;;2.58;1.30;;;;;;;;;;5071567;28;20025;-43
2022/02/24 03:14:38;;;;;;;2.92;1.38;;;;;;;;;;5071441;28;20402;-47
2022/02/24 03:17:04;;;;;;;1.60;1.20;;;;;;;;;;5086054;28;20089;-43
2022/02/24 03:19:30;;;;;;;1.88;1.25;;;;;;;;;;5091916;28;20112;-43
2022/02/24 03:21:56;;;;;;;1.65;1.13;;;;;;;;;;5077624;28;20092;-45
2022/02/24 03:24:22;;;;;;;1.65;1.30;;;;;;;;;;5071767;28;20099;-44
2022/02/24 03:26:48;;;;;;;2.40;1.23;;;;;;;;;;5082502;28;20124;-48
2022/02/24 03:29:14;;;;;;;1.17;1.05;;;;;;;;;;5092104;28;20369;-43
2022/02/24 03:31:41;;;;;;;2.42;1.10;;;;;;;;;;5090959;28;20483;-46
2022/02/24 03:34:07;;;;;;;2.15;1.70;;;;;;;;;;5091780;28;20496;-44
2022/02/24 03:36:33;;;;;;;1.98;1.35;;;;;;;;;;5081583;28;20060;-46
2022/02/24 03:38:59;;;;;;;2.83;1.10;;;;;;;;;;5070845;28;20027;-45
2022/02/24 03:41:25;;;;;;;3.17;1.20;;;;;;;;;;5067611;28;20385;-44
2022/02/24 03:43:53;;;;;;;2.47;1.27;;;;;;;;;;5083170;28;20025;-43
2022/02/24 03:46:20;;;;;;;2.90;1.42;;;;;;;;;;5079169;28;20024;-46
2022/02/24 03:48:46;;;;;;;1.52;0.90;;;;;;;;;;5091236;28;20421;-44
2022/02/24 03:51:12;;;;;;;3.95;1.40;;;;;;;;;;5091807;28;20082;-43
2022/02/24 03:53:38;;;;;;;1.85;1.35;;;;;;;;;;5091402;28;20020;-45
2022/02/24 03:56:04;;;;;;;1.40;0.98;;;;;;;;;;5086465;28;20466;-44
2022/02/24 03:58:30;;;;;;;2.17;1.30;;;;;;;;;;5071513;28;20429;-44
2022/02/24 04:00:56;;;;;;;1.63;1.02;;;;;;;;;;5070587;28;20551;-45
2022/02/24 04:03:22;;;;;;;1.23;0.90;;;;;;;;;;5071560;28;20029;-43
2022/02/24 04:05:48;;;;;;;1.65;1.10;;;;;;;;;;5076927;28;20032;-43
2022/02/24 04:08:14;;;;;;;2.08;1.33;;;;;;;;;;5091410;28;20089;-44
2022/02/24 04:10:40;;;;;;;1.92;1.10;;;;;;;;;;5090743;28;20059;-46
2022/02/24 04:13:06;;;;;;;1.75;1.30;;;;;;;;;;5091409;28;20430;-43
2022/02/24 04:15:32;;;;;;;3.65;1.33;;;;;;;;;;5091074;28;20052;-42
2022/02/24 04:17:58;;;;;;;1.95;1.33;;;;;;;;;;5090762;28;20031;-42
2022/02/24 04:20:24;;;;;;;1.80;1.23;;;;;;;;;;5091734;28;20020;-42
2022/02/24 04:22:50;;;;;;;1.75;1.05;;;;;;;;;;5090606;28;20027;-43
2022/02/24 04:25:16;;;;;;;1.50;1.00;;;;;;;;;;5090819;28;20449;-42
2022/02/24 04:27:49;;;;;;;2.08;1.50;;;;;;;;;;5073807;28;20024;-43
2022/02/24 04:30:16;;;;;;;1.92;1.20;;;;;;;;;;5081720;28;20039;-44
2022/02/24 04:32:42;;;;;;;1.23;1.00;;;;;;;;;;5094078;28;20488;-43
2022/02/24 04:35:09;;;;;;;1.25;0.80;;;;;;;;;;5094301;28;20031;-42
2022/02/24 04:37:35;;;;;;;2.92;1.27;;;;;;;;;;5094743;28;20427;-43
2022/02/24 04:40:01;;;;;;;1.88;1.20;;;;;;;;;;5094112;28;20016;-42
2022/02/24 04:42:27;;;;;;;2.50;1.25;;;;;;;;;;5094961;28;20048;-42
2022/02/24 04:44:53;;;;;;;1.27;0.98;;;;;;;;;;5080258;28;20458;-42
2022/02/24 04:47:19;;;;;;;1.38;1.00;;;;;;;;;;5094914;28;20028;-42
2022/02/24 04:49:45;;;;;;;1.27;1.00;;;;;;;;;;5094093;28;20042;-43
2022/02/24 04:52:11;;;;;;;1.80;1.00;;;;;;;;;;5094776;28;20099;-42
2022/02/24 04:54:37;;;;;;;1.45;1.10;;;;;;;;;;5094675;28;20030;-42
2022/02/24 04:57:03;;;;;;;2.70;0.90;;;;;;;;;;5075481;28;20029;-44
2022/02/24 04:59:29;;;;;;;1.98;1.08;;;;;;;;;;5074445;28;20040;-42
2022/02/24 05:01:55;;;;;;;1.42;0.88;;;;;;;;;;5073527;28;20025;-42
2022/02/24 05:04:21;;;;;;;2.10;1.23;;;;;;;;;;5074860;28;20024;-42
2022/02/24 05:06:48;;;;;;;2.00;0.82;;;;;;;;;;5093668;28;20030;-42
2022/02/24 05:09:14;;;;;;;2.25;1.40;;;;;;;;;;5094335;28;20049;-42
2022/02/24 05:11:40;;;;;;;1.30;0.90;;;;;;;;;;5094091;28;20040;-45
2022/02/24 05:14:06;;;;;;;1.15;0.75;;;;;;;;;;5093138;28;20097;-43
2022/02/24 05:16:32;;;;;;;1.92;1.20;;;;;;;;;;5076364;28;20465;-43
2022/02/24 05:18:58;;;;;;;1.25;0.70;;;;;;;;;;5073092;28;20469;-41
2022/02/24 05:21:24;;;;;;;3.22;1.00;;;;;;;;;;5074148;28;20024;-42
2022/02/24 05:23:51;;;;;;;3.78;1.10;;;;;;;;;;5072936;28;20029;-42
2022/02/24 05:26:18;;;;;;;1.67;0.82;;;;;;;;;;5088756;28;20024;-42
2022/02/24 05:28:44;;;;;;;1.58;0.88;;;;;;;;;;5092664;28;20043;-44
2022/02/24 05:31:10;;;;;;;2.60;1.00;;;;;;;;;;5094101;28;20369;-41
2022/02/24 05:33:36;;;;;;;1.13;0.93;;;;;;;;;;5093790;28;20020;-42
2022/02/24 05:36:03;;;;;;;1.52;0.80;;;;;;;;;;5079830;28;20089;-41
2022/02/24 05:38:30;;;;;;;1.27;0.80;;;;;;;;;;5073357;28;20020;-41
2022/02/24 05:40:57;;;;;;;2.33;1.10;;;;;;;;;;5090052;28;20374;-42
2022/02/24 05:43:24;;;;;;;1.73;1.40;;;;;;;;;;5089417;28;20013;-41
2022/02/24 05:45:50;;;;;;;2.03;0.98;;;;;;;;;;5082817;28;20028;-44
2022/02/24 05:48:16;;;;;;;0.88;0.70;;;;;;;;;;5094000;28;20107;-43
2022/02/24 05:50:42;;;;;;;4.38;1.13;;;;;;;;;;5093135;28;20028;-45
2022/02/24 05:53:08;;;;;;;3.72;0.93;;;;;;;;;;5093399;28;20028;-42
2022/02/24 05:55:35;;;;;;;1.40;0.85;;;;;;;;;;5084882;28;20478;-43
2022/02/24 05:58:01;;;;;;;2.35;1.17;;;;;;;;;;5072103;28;20608;-42
2022/02/24 06:00:28;;;;;;;3.03;0.90;;;;;;;;;;5076372;28;20028;-43
2022/02/24 06:02:54;;;;;;;1.77;0.90;;;;;;;;;;5074303;28;20031;-46
2022/02/24 06:05:20;;;;;;;1.10;0.82;;;;;;;;;;5092569;28;20020;-47
2022/02/24 06:07:46;;;;;;;2.08;1.10;;;;;;;;;;5092691;28;20117;-43
2022/02/24 06:10:13;;;;;;;1.13;0.63;;;;;;;;;;5089809;28;20025;-42
2022/02/24 06:12:39;;;;;;;1.25;0.77;;;;;;;;;;5081719;28;20107;-44
2022/02/24 06:15:06;;;;;;;0.80;0.60;;;;;;;;;;5082570;28;20102;-41
2022/02/24 06:17:33;;;;;;;3.25;1.08;;;;;;;;;;5090249;28;20032;-41
2022/02/24 06:19:59;;;;;;;1.98;0.70;;;;;;;;;;5092260;28;20486;-44
2022/02/24 06:22:25;;;;;;;0.95;0.60;;;;;;;;;;5093159;28;20518;-48
2022/02/24 06:24:51;;;;;;;1.55;0.70;;;;;;;;;;5086254;28;20037;-45
2022/02/24 06:27:20;;;;;;;2.75;0.82;;;;;;;;;;5072903;28;20036;-44
2022/02/24 06:29:47;;;;;;;3.53;1.02;;;;;;;;;;5077523;28;20040;-48
2022/02/24 06:32:13;;;;;;;1.45;0.85;;;;;;;;;;5074990;28;20032;-45
2022/02/24 06:34:43;;;;;;;2.08;0.60;;;;;;;;;;5086418;28;20107;-45
2022/02/24 06:37:09;;;;;;;2.80;0.70;;;;;;;;;;5072015;28;20029;-42
2022/02/24 06:39:36;;;;;;;4.25;0.90;;;;;;;;;;5072380;28;20064;-44
2022/02/24 06:42:02;;;;;;;1.10;0.75;;;;;;;;;;5071305;28;20382;-44
2022/02/24 06:44:29;;;;;;;2.60;1.23;;;;;;;;;;5084951;28;20043;-42
2022/02/24 06:46:56;;;;;;;4.60;0.75;;;;;;;;;;5091719;28;20044;-45
2022/02/24 06:49:21;;;;;;;4.68;1.30;;;;;;;;;;5092718;28;20024;-44
2022/02/24 06:51:50;;;;;;;3.05;0.90;;;;;;;;;;5091967;28;20028;-45
2022/02/24 06:54:16;;;;;;;1.42;0.60;;;;;;;;;;5087001;28;20085;-43
2022/02/24 06:56:42;;;;;;;2.72;0.80;;;;;;;;;;5071678;28;20028;-45
2022/02/24 06:59:09;;;;;;;5.10;1.33;;;;;;;;;;5071770;28;20040;-43
2022/02/24 07:01:35;;;;;;;1.73;0.77;;;;;;;;;;5071986;28;20166;-45
2022/02/24 07:04:01;;;;;;;3.33;0.85;;;;;;;;;;5052928;28;20028;-45
2022/02/24 07:06:27;;;;;;;5.22;1.05;;;;;;;;;;5092511;28;20111;-44
2022/02/24 07:08:53;;;;;;;2.70;1.23;;;;;;;;;;5091667;28;20150;-44
2022/02/24 07:11:19;;;;;;;3.47;1.08;;;;;;;;;;5092018;28;20028;-43
2022/02/24 07:13:45;;;;;;;4.97;1.25;;;;;;;;;;5089497;28;20027;-47
2022/02/24 07:16:11;;;;;;;9.40;1.75;;;;;;;;;;5091857;28;20028;-43
2022/02/24 07:18:37;;;;;;;2.72;0.88;;;;;;;;;;5092198;28;20031;-44
2022/02/24 07:21:03;;;;;;;4.43;1.00;;;;;;;;;;5091403;28;20109;-44
2022/02/24 07:23:29;;;;;;;2.47;1.15;;;;;;;;;;5092231;28;20024;-44
2022/02/24 07:25:56;;;;;;;3.10;1.40;;;;;;;;;;5078813;28;20028;-44
2022/02/24 07:28:22;;;;;;;4.15;1.25;;;;;;;;;;5082414;28;20039;-43
2022/02/24 07:30:49;;;;;;;2.20;1.50;;;;;;;;;;5081337;28;20040;-44
2022/02/24 07:33:15;;;;;;;3.22;1.00;;;;;;;;;;5083414;28;20048;-44
2022/02/24 07:35:41;;;;;;;2.88;1.08;;;;;;;;;;5086543;28;20036;-47
2022/02/24 07:38:07;;;;;;;5.57;1.27;;;;;;;;;;5070623;28;20330;-43
2022/02/24 07:40:33;;;;;;;4.32;1.75;;;;;;;;;;5071233;28;20525;-44
2022/02/24 07:43:00;;;;;;;2.88;1.25;;;;;;;;;;5081022;28;20028;-44
2022/02/24 07:45:26;;;;;;;2.35;1.10;;;;;;;;;;5073075;28;20036;-44
2022/02/24 07:47:52;;;;;;;4.20;1.00;;;;;;;;;;5088842;28;20028;-44
2022/02/24 07:50:18;;;;;;;4.28;1.23;;;;;;;;;;5091524;28;20082;-45
2022/02/24 07:52:45;;;;;;;5.15;1.30;;;;;;;;;;5091799;28;20069;-45
2022/02/24 07:55:11;;;;;;;5.60;1.73;;;;;;;;;;5089499;28;20020;-47
2022/02/24 07:57:39;;;;;;;2.55;1.33;;;;;;;;;;5090490;28;20498;-45
2022/02/24 08:00:05;;;;;;;4.07;1.23;;;;;;;;;;5076019;28;20491;-44
2022/02/24 08:02:31;;;;;;;2.45;1.40;;;;;;;;;;5095079;28;20039;-48
2022/02/24 08:04:57;;;;;;;5.13;1.35;;;;;;;;;;5094742;28;20016;-44
2022/02/24 08:07:23;;;;;;;6.28;1.42;;;;;;;;;;5094825;28;20028;-45
2022/02/24 08:09:49;;;;;;;4.03;1.50;;;;;;;;;;5094885;28;20028;-50
2022/02/24 08:15:00;;;;;;;3.00;1.02;;;;;;;;;;5090816;28;20456;-46
2022/02/24 08:17:26;;;;;;;5.38;1.42;;;;;;;;;;5095483;28;20028;-49
2022/02/24 08:19:52;;;;;;;3.75;1.40;;;;;;;;;;5094502;28;20020;-46
2022/02/24 08:22:18;;;;;;;3.70;1.50;;;;;;;;;;5095507;28;20063;-45
2022/02/24 08:24:44;;;;;;;3.38;1.38;;;;;;;;;;5095295;28;20024;-44
2022/02/24 08:27:10;;;;;;;3.15;1.10;;;;;;;;;;5096059;28;20365;-46
2022/02/24 08:29:36;;;;;;;2.55;1.30;;;;;;;;;;5089852;28;20031;-45
2022/02/24 08:32:03;;;;;;;2.42;1.45;;;;;;;;;;5094762;28;20071;-44
2022/02/24 08:34:29;;;;;;;5.00;1.50;;;;;;;;;;5094884;28;20103;-44
2022/02/24 08:36:55;;;;;;;2.78;1.50;;;;;;;;;;5094336;28;20025;-44
2022/02/24 08:39:23;;;;;;;4.00;1.70;;;;;;;;;;5094815;28;20028;-43
2022/02/24 08:41:49;;;;;;;2.30;1.40;;;;;;;;;;5094591;28;20074;-49
2022/02/24 08:44:15;;;;;;;1.92;1.15;;;;;;;;;;5086155;28;20023;-46
2022/02/24 08:46:41;;;;;;;4.72;1.73;;;;;;;;;;5094928;28;20020;-43
2022/02/24 08:49:07;;;;;;;5.05;1.40;;;;;;;;;;5094217;28;20028;-45
2022/02/24 08:51:33;;;;;;;3.55;1.30;;;;;;;;;;5094415;28;20400;-45
2022/02/24 08:53:59;;;;;;;2.38;1.55;;;;;;;;;;5094154;28;20017;-45
2022/02/24 08:56:25;;;;;;;3.67;1.65;;;;;;;;;;5094362;28;20224;-46
2022/02/24 08:58:51;;;;;;;3.75;1.13;;;;;;;;;;5088382;28;20032;-47
2022/02/24 09:01:17;;;;;;;3.45;1.60;;;;;;;;;;5090361;28;20028;-45
2022/02/24 09:03:43;;;;;;;2.45;1.38;;;;;;;;;;5095480;28;20028;-45
2022/02/24 09:06:09;;;;;;;1.85;1.10;;;;;;;;;;5094097;28;20689;-45
2022/02/24 09:08:35;;;;;;;3.05;1.17;;;;;;;;;;5089174;28;20035;-46
2022/02/24 09:11:02;;;;;;;2.85;1.45;;;;;;;;;;5081159;28;20120;-46
2022/02/24 09:13:28;;;;;;;2.47;1.13;;;;;;;;;;5056950;28;20060;-44
2022/02/24 09:15:54;;;;;;;3.42;1.23;;;;;;;;;;5075505;28;20072;-47
2022/02/24 09:18:20;;;;;;;3.65;1.85;;;;;;;;;;5074027;28;20028;-47
2022/02/24 09:20:46;;;;;;;3.72;1.05;;;;;;;;;;5074772;28;20497;-45
2022/02/24 09:23:12;;;;;;;1.60;1.20;;;;;;;;;;5073310;28;20021;-44
2022/02/24 09:25:38;;;;;;;1.08;0.88;;;;;;;;;;5092103;28;20039;-46
2022/02/24 09:28:04;;;;;;;1.65;0.95;;;;;;;;;;5093368;28;20023;-46
2022/02/24 09:30:31;;;;;;;2.03;1.10;;;;;;;;;;5073698;28;20078;-45
2022/02/24 09:32:57;;;;;;;1.25;0.80;;;;;;;;;;5073293;28;20059;-47
2022/02/24 09:35:23;;;;;;;2.85;1.00;;;;;;;;;;5073885;28;20032;-44
2022/02/24 09:37:49;;;;;;;1.90;1.10;;;;;;;;;;5073558;28;20373;-44
2022/02/24 09:40:15;;;;;;;0.88;0.70;;;;;;;;;;5074782;28;20031;-45
2022/02/24 09:42:42;;;;;;;2.78;1.20;;;;;;;;;;5079652;28;20099;-47
2022/02/24 09:45:09;;;;;;;2.88;1.35;;;;;;;;;;5073477;28;20040;-45
2022/02/24 09:47:37;;;;;;;2.28;0.93;;;;;;;;;;5073689;28;20031;-46
2022/02/24 09:50:04;;;;;;;1.40;1.20;;;;;;;;;;5088204;28;20070;-47
2022/02/24 09:52:30;;;;;;;4.03;1.10;;;;;;;;;;5091810;28;20024;-47
2022/02/24 09:54:56;;;;;;;1.95;1.00;;;;;;;;;;5092761;28;20020;-47
2022/02/24 09:57:22;;;;;;;2.10;1.02;;;;;;;;;;5082685;28;20497;-45
2022/02/24 09:59:48;;;;;;;2.25;1.20;;;;;;;;;;5074310;28;20033;-46
2022/02/24 10:02:15;;;;;;;2.35;1.05;;;;;;;;;;5092534;28;20043;-45
2022/02/24 10:05:00;;;;;;;0.93;0.70;;;;;;;;;;5093046;28;20020;-46
2022/02/24 10:07:26;;;;;;;4.60;1.00;;;;;;;;;;5092570;28;20140;-47
2022/02/24 10:09:52;;;;;;;3.70;1.20;;;;;;;;;;5091680;28;20024;-49
2022/02/24 10:12:18;;;;;;;2.78;1.17;;;;;;;;;;5073391;28;20505;-47
2022/02/24 10:14:44;;;;;;;6.60;1.25;;;;;;;;;;5092265;28;20052;-45
2022/02/24 10:17:10;;;;;;;2.72;0.90;;;;;;;;;;5084533;28;20028;-46
2022/02/24 10:19:43;;;;;;;3.47;1.08;;;;;;;;;;5092010;28;20024;-45
2022/02/24 10:22:12;;;;;;;2.60;0.95;;;;;;;;;;5091321;28;20069;-46
2022/02/24 10:24:39;;;;;;;4.22;1.23;;;;;;;;;;5086468;28;20031;-50
2022/02/24 10:27:17;;;;;;;2.95;1.23;;;;;;;;;;5083215;28;20021;-45
2022/02/24 10:30:01;;;;;;;2.95;0.70;;;;;;;;;;5094320;28;20070;-48
2022/02/24 10:32:38;;;;;;;3.42;1.17;;;;;;;;;;5092680;28;20032;-49
2022/02/24 10:35:22;;;;;;;1.85;0.70;;;;;;;;;;5092170;28;20169;-45
2022/02/24 10:38:07;;;;;;;2.33;1.40;;;;;;;;;;5083810;28;20039;-47
2022/02/24 10:40:36;;;;;;;2.40;0.77;;;;;;;;;;5092751;28;20525;-46
2022/02/24 10:43:28;;;;;;;2.25;0.90;;;;;;;;;;5091325;28;20031;-45
2022/02/24 10:45:59;;;;;;;1.38;0.80;;;;;;;;;;5069265;28;20045;-49
2022/02/24 10:48:25;;;;;;;3.33;1.48;;;;;;;;;;5074542;28;20040;-45
2022/02/24 10:50:57;;;;;;;2.10;1.10;;;;;;;;;;5093128;28;20020;-45
2022/02/24 10:53:23;;;;;;;;;;;;;;;;;;5093825;28;20377;-46
2022/02/24 10:55:53;;;;;;;2.22;0.95;;;;;;;;;;5090061;28;19914;-49
2022/02/24 10:58:19;;;;;;;5.35;1.15;;;;;;;;;;5091536;28;20028;-45
2022/02/24 11:00:45;;;;;;;1.40;1.08;;;;;;;;;;5091240;28;20028;-47
2022/02/24 11:03:12;;;;;;;2.72;1.30;;;;;;;;;;5091199;28;20107;-47
2022/02/24 11:05:41;;;;;;;1.98;1.00;;;;;;;;;;5092149;28;20028;-46
2022/02/24 11:08:08;;;;;;;3.50;1.38;;;;;;;;;;5091445;28;20107;-49
2022/02/24 11:10:34;;;;;;;3.97;0.98;;;;;;;;;;5083536;28;20036;-46
2022/02/24 11:13:00;;;;;;;1.33;0.95;;;;;;;;;;5070758;28;20535;-49
2022/02/24 11:15:26;;;;;;;1.10;0.70;;;;;;;;;;5072135;28;20084;-46
2022/02/24 11:17:53;;;;;;;1.50;0.77;;;;;;;;;;5071137;28;20029;-45
2022/02/24 11:20:21;;;;;;;1.55;1.08;;;;;;;;;;5089824;28;20024;-48
2022/02/24 11:22:48;;;;;;;1.50;0.93;;;;;;;;;;5092105;28;20026;-47
2022/02/24 11:25:15;;;;;;;4.00;0.98;;;;;;;;;;5082319;28;20756;-47
2022/02/24 11:27:47;;;;;;;2.25;0.95;;;;;;;;;;5079744;28;20029;-48
2022/02/24 11:30:30;;;;;;;2.65;1.17;;;;;;;;;;5079601;28;20435;-47
2022/02/24 11:32:56;;;;;;;2.20;1.10;;;;;;;;;;5081433;28;20108;-51
2022/02/24 11:35:23;;;;;;;5.53;1.02;;;;;;;;;;5086881;28;20031;-45
2022/02/24 11:37:55;;;;;;;1.33;0.85;;;;;;;;;;5072808;28;20039;-46
2022/02/24 11:40:20;;;;;;;;;;;;;;;;;;5071692;28;20032;-47
2022/02/24 11:43:01;;;;;;;1.42;0.60;;;;;;;;;;5079638;28;19908;-45
2022/02/24 11:45:27;;;;;;;3.63;0.90;;;;;;;;;;5071544;28;20037;-47
2022/02/24 11:48:07;;;;;;;5.57;1.38;;;;;;;;;;5071525;28;20052;-47
2022/02/24 11:50:37;;;;;;;2.13;1.10;;;;;;;;;;5071881;28;20017;-46
2022/02/24 11:53:05;;;;;;;1.40;0.82;;;;;;;;;;5070874;28;20778;-48
2022/02/24 11:55:48;;;;;;;5.20;1.13;;;;;;;;;;5077830;28;20023;-47
2022/02/24 11:58:33;;;;;;;2.42;0.70;;;;;;;;;;5087171;28;20032;-46
2022/02/24 12:01:08;;;;;;;9.10;1.40;;;;;;;;;;5075159;28;20024;-50
2022/02/24 12:03:46;;;;;;;4.93;0.75;;;;;;;;;;5091519;28;20016;-46
2022/02/24 12:06:13;;;;;;;3.28;0.85;;;;;;;;;;5090961;28;20035;-47
2022/02/24 12:09:08;;;;;;;1.75;0.95;;;;;;;;;;5066824;28;20032;-46
2022/02/24 12:11:34;;;;;;;2.85;0.98;;;;;;;;;;5061431;28;20032;-47
2022/02/24 12:14:01;;;;;;;1.20;0.75;;;;;;;;;;5074035;28;20492;-50
2022/02/24 12:16:27;;;;;;;1.27;0.60;;;;;;;;;;5071659;28;20025;-45
2022/02/24 12:18:54;;;;;;;2.20;0.77;;;;;;;;;;5083897;28;20036;-45
2022/02/24 12:21:29;;;;;;;2.17;0.90;;;;;;;;;;5090665;28;20035;-46
2022/02/24 12:23:59;;;;;;;2.13;1.05;;;;;;;;;;5085416;28;20021;-45
2022/02/24 12:26:44;;;;;;;2.42;0.80;;;;;;;;;;5087722;28;20035;-46
2022/02/24 12:29:26;;;;;;;1.30;0.90;;;;;;;;;;5076292;28;20040;-46
2022/02/24 12:31:59;;;;;;;3.03;1.38;;;;;;;;;;5070911;28;20050;-48
2022/02/24 12:34:26;;;;;;;1.58;0.68;;;;;;;;;;5078090;28;20033;-48
2022/02/24 12:36:52;;;;;;;1.60;0.80;;;;;;;;;;5091231;28;20649;-50
2022/02/24 12:39:18;;;;;;;0.90;0.63;;;;;;;;;;5089972;28;20641;-49
2022/02/24 12:41:44;;;;;;;2.28;0.70;;;;;;;;;;5091492;28;20025;-46
2022/02/24 12:44:20;;;;;;;1.27;0.82;;;;;;;;;;5085150;28;20052;-49
2022/02/24 12:46:47;;;;;;;1.70;0.88;;;;;;;;;;5087452;28;20033;-47
2022/02/24 12:49:13;;;;;;;1.85;1.08;;;;;;;;;;5055839;28;20482;-49
2022/02/24 12:51:39;;;;;;;2.15;0.70;;;;;;;;;;5074386;28;20031;-46
2022/02/24 12:54:05;;;;;;;2.45;0.88;;;;;;;;;;5077463;28;20016;-46
2022/02/24 12:56:37;;;;;;;1.33;0.80;;;;;;;;;;5088759;28;20377;-48
2022/02/24 12:59:07;;;;;;;3.38;0.80;;;;;;;;;;5074026;28;20029;-46
2022/02/24 13:01:33;;;;;;;1.33;0.80;;;;;;;;;;5075683;28;20016;-48
2022/02/24 13:03:58;;;;;;;1.67;0.93;;;;;;;;;;5094537;28;20485;-50
2022/02/24 13:06:24;;;;;;;1.65;1.05;;;;;;;;;;5088645;28;20032;-46
2022/02/24 13:11:35;;;;;;;1.70;0.70;;;;;;;;;;5074520;28;20032;-47
2022/02/24 13:14:01;;;;;;;1.98;0.90;;;;;;;;;;5055497;28;20045;-51
2022/02/24 13:16:27;;;;;;;1.13;0.50;;;;;;;;;;5074659;28;20488;-48
2022/02/24 13:18:54;;;;;;;1.75;0.80;;;;;;;;;;5089553;28;20032;-48
2022/02/24 13:21:29;;;;;;;3.75;1.10;;;;;;;;;;5093312;28;20661;-46
2022/02/24 13:23:57;;;;;;;1.65;1.17;;;;;;;;;;5094690;28;20032;-46
2022/02/24 13:26:33;;;;;;;1.05;0.70;;;;;;;;;;5085919;28;20023;-46
2022/02/24 13:28:59;;;;;;;4.82;1.50;;;;;;;;;;5074048;28;20025;-47
2022/02/24 13:31:25;;;;;;;0.93;0.55;;;;;;;;;;5074113;28;20032;-47
2022/02/24 13:33:51;;;;;;;3.13;1.00;;;;;;;;;;5073861;28;20020;-46
2022/02/24 13:36:17;;;;;;;1.90;1.08;;;;;;;;;;5090943;28;20020;-46
2022/02/24 13:38:44;;;;;;;2.42;0.80;;;;;;;;;;5094046;28;20111;-47
2022/02/24 13:41:14;;;;;;;2.80;0.77;;;;;;;;;;5093194;28;20107;-48
2022/02/24 13:43:45;;;;;;;1.08;0.82;;;;;;;;;;5080100;28;20016;-46
2022/02/24 13:46:11;;;;;;;2.13;0.90;;;;;;;;;;5091497;28;20038;-46
2022/02/24 13:48:38;;;;;;;1.20;0.80;;;;;;;;;;5093960;28;20028;-46
2022/02/24 13:51:04;;;;;;;1.85;0.70;;;;;;;;;;5092472;28;20027;-46
2022/02/24 13:53:35;;;;;;;1.48;0.60;;;;;;;;;;5090598;28;20024;-47
2022/02/24 13:56:03;;;;;;;1.17;0.73;;;;;;;;;;5092946;28;20085;-54
2022/02/24 13:58:40;;;;;;;2.55;0.70;;;;;;;;;;5091869;28;20047;-46
2022/02/24 14:01:08;;;;;;;0.93;0.77;;;;;;;;;;5087044;28;20035;-48
2022/02/24 14:03:34;;;;;;;0.95;0.73;;;;;;;;;;5086094;28;20026;-49
2022/02/24 14:06:04;;;;;;;1.20;0.68;;;;;;;;;;5092998;28;20166;-49
2022/02/24 14:08:30;;;;;;;1.08;0.57;;;;;;;;;;5093249;28;20024;-49
2022/02/24 14:11:06;;;;;;;1.85;0.70;;;;;;;;;;5093335;28;20396;-48
2022/02/24 14:13:32;;;;;;;1.02;0.85;;;;;;;;;;5084849;28;20020;-47
2022/02/24 14:15:58;;;;;;;1.52;0.85;;;;;;;;;;5077805;28;20059;-47
2022/02/24 14:18:24;;;;;;;1.70;0.63;;;;;;;;;;5090684;28;20578;-46
2022/02/24 14:20:51;;;;;;;3.10;0.85;;;;;;;;;;5092857;28;20020;-47
2022/02/24 14:23:17;;;;;;;1.45;0.70;;;;;;;;;;5092127;28;20424;-51
2022/02/24 14:25:43;;;;;;;2.70;0.98;;;;;;;;;;5092167;28;20026;-48
2022/02/24 14:28:09;;;;;;;2.75;0.75;;;;;;;;;;5085400;28;20028;-50
2022/02/24 14:30:35;;;;;;;2.70;0.75;;;;;;;;;;5083665;28;20031;-51
2022/02/24 14:33:01;;;;;;;0.93;0.60;;;;;;;;;;5092938;28;20028;-52
2022/02/24 14:35:27;;;;;;;1.17;0.70;;;;;;;;;;5092281;28;20032;-49
2022/02/24 14:37:54;;;;;;;3.30;1.00;;;;;;;;;;5072669;28;20028;-50
2022/02/24 14:40:20;;;;;;;0.68;0.47;;;;;;;;;;5071843;28;20028;-48
2022/02/24 14:42:46;;;;;;;1.73;0.57;;;;;;;;;;5072109;28;20024;-49
2022/02/24 14:45:13;;;;;;;1.55;0.80;;;;;;;;;;5090799;28;20031;-51
2022/02/24 14:47:39;;;;;;;3.75;1.25;;;;;;;;;;5092387;28;20556;-51
2022/02/24 14:50:05;;;;;;;1.52;0.77;;;;;;;;;;5072326;28;20469;-50
2022/02/24 14:52:31;;;;;;;4.03;1.05;;;;;;;;;;5071555;28;20033;-49
2022/02/24 14:55:02;;;;;;;2.35;0.70;;;;;;;;;;5072411;28;20024;-51
2022/02/24 14:57:29;;;;;;;3.38;1.00;;;;;;;;;;5071847;28;20063;-51
2022/02/24 14:59:55;;;;;;;3.13;0.80;;;;;;;;;;5089847;28;20035;-52
2022/02/24 15:02:27;;;;;;;2.00;0.90;;;;;;;;;;5090618;28;20035;-52